createdAt,value
2019-01-19T00:00:42.444Z,81.28
2019-01-19T00:01:42.414Z,80.34
2019-01-19T00:02:42.402Z,80.55
2019-01-19T00:03:42.407Z,80.34
2019-01-19T00:04:42.385Z,80.24
2019-01-19T00:05:42.371Z,80.55
2019-01-19T00:06:42.378Z,80.27
2019-01-19T00:07:42.352Z,80.02
2019-01-19T00:08:42.336Z,80.44
2019-01-19T00:09:42.327Z,80.55
2019-01-19T00:10:42.317Z,80.55
2019-01-19T00:11:42.309Z,80.16
2019-01-19T00:12:42.298Z,80.90
2019-01-19T00:13:42.287Z,81.21
2019-01-19T00:14:42.277Z,81.32
2019-01-19T00:15:42.270Z,81.52
2019-01-19T00:16:42.255Z,81.11
2019-01-19T00:17:42.246Z,81.84
2019-01-19T00:18:42.233Z,82.15
2019-01-19T00:19:42.228Z,81.73
2019-01-19T00:20:42.213Z,81.77
2019-01-19T00:21:42.205Z,81.98
2019-01-19T00:22:42.192Z,81.52
2019-01-19T00:23:42.186Z,81.84
2019-01-19T00:24:42.171Z,81.73
2019-01-19T00:25:42.164Z,82.36
2019-01-19T00:26:42.150Z,82.57
2019-01-19T00:27:42.139Z,82.46
2019-01-19T00:28:42.130Z,82.40
2019-01-19T00:29:42.121Z,82.50
2019-01-19T00:30:42.111Z,82.26
2019-01-19T00:31:42.100Z,82.40
2019-01-19T00:32:42.088Z,82.67
2019-01-19T00:33:42.075Z,83.13
2019-01-19T00:34:42.066Z,82.40
2019-01-19T00:35:42.056Z,82.92
2019-01-19T00:36:42.044Z,82.50
2019-01-19T00:37:42.032Z,82.60
2019-01-19T00:38:42.023Z,83.03
2019-01-19T00:39:42.015Z,83.03
2019-01-19T00:40:42.005Z,83.03
2019-01-19T00:41:41.992Z,82.92
2019-01-19T00:42:41.982Z,83.44
2019-01-19T00:43:41.975Z,83.55
2019-01-19T00:44:41.965Z,83.65
2019-01-19T00:45:41.950Z,83.48
2019-01-19T00:46:41.939Z,83.38
2019-01-19T00:47:41.931Z,83.48
2019-01-19T00:48:41.921Z,83.38
2019-01-19T00:49:41.911Z,84.42
2019-01-19T00:50:41.899Z,84.00
2019-01-19T00:51:41.886Z,84.42
2019-01-19T00:52:41.878Z,84.00
2019-01-19T00:53:41.863Z,84.32
2019-01-19T00:54:41.859Z,84.00
2019-01-19T00:55:41.854Z,84.32
2019-01-19T00:56:41.835Z,84.15
2019-01-19T00:57:41.825Z,84.25
2019-01-19T00:58:41.814Z,84.22
2019-01-19T00:59:41.803Z,84.22
2019-01-19T01:00:41.794Z,84.32
2019-01-19T01:01:41.784Z,84.42
2019-01-19T01:02:41.779Z,84.46
2019-01-19T01:03:41.763Z,85.26
2019-01-19T01:04:41.752Z,85.36
2019-01-19T01:05:41.742Z,84.74
2019-01-19T01:06:41.729Z,85.26
2019-01-19T01:07:41.720Z,84.00
2019-01-19T01:08:41.704Z,84.00
2019-01-19T01:09:41.695Z,84.32
2019-01-19T01:10:41.688Z,84.22
2019-01-19T01:11:41.679Z,84.32
2019-01-19T01:12:41.666Z,83.23
2019-01-19T01:13:41.659Z,83.80
2019-01-19T01:14:41.646Z,84.11
2019-01-19T01:15:41.635Z,84.53
2019-01-19T01:16:41.626Z,83.76
2019-01-19T01:17:41.612Z,83.27
2019-01-19T01:18:41.600Z,83.23
2019-01-19T01:19:41.593Z,83.38
2019-01-19T01:20:41.584Z,82.92
2019-01-19T01:21:41.571Z,83.03
2019-01-19T01:22:41.565Z,83.27
2019-01-19T01:23:41.553Z,82.71
2019-01-19T01:24:41.541Z,83.34
2019-01-19T01:25:41.534Z,83.23
2019-01-19T01:26:41.515Z,83.34
2019-01-19T01:27:41.506Z,83.34
2019-01-19T01:28:41.493Z,83.13
2019-01-19T01:29:41.488Z,83.34
2019-01-19T01:30:41.476Z,82.92
2019-01-19T01:31:41.470Z,82.71
2019-01-19T01:32:41.456Z,83.03
2019-01-19T01:33:41.445Z,82.71
2019-01-19T01:34:41.435Z,82.50
2019-01-19T01:35:41.425Z,82.40
2019-01-19T01:36:41.417Z,82.60
2019-01-19T01:37:41.407Z,82.29
2019-01-19T01:38:41.390Z,82.50
2019-01-19T01:39:41.382Z,82.09
2019-01-19T01:40:41.373Z,81.73
2019-01-19T01:41:41.370Z,81.00
2019-01-19T01:42:41.354Z,81.73
2019-01-19T01:43:41.342Z,81.42
2019-01-19T01:44:41.331Z,81.95
2019-01-19T01:45:41.361Z,81.11
2019-01-19T01:46:41.310Z,81.00
2019-01-19T01:47:41.297Z,80.48
2019-01-19T01:48:41.291Z,81.00
2019-01-19T01:49:41.280Z,81.21
2019-01-19T01:50:41.268Z,81.32
2019-01-19T01:51:41.261Z,80.69
2019-01-19T01:52:41.246Z,81.42
2019-01-19T01:53:41.239Z,81.21
2019-01-19T01:54:41.229Z,80.90
2019-01-19T01:55:41.217Z,81.11
2019-01-19T01:56:41.207Z,81.42
2019-01-19T01:57:41.195Z,81.11
2019-01-19T01:58:41.183Z,81.21
2019-01-19T01:59:41.172Z,81.73
2019-01-19T02:00:41.164Z,81.77
2019-01-19T02:01:41.155Z,81.77
2019-01-19T02:02:41.142Z,81.77
2019-01-19T02:03:41.130Z,81.95
2019-01-19T02:04:41.125Z,81.67
2019-01-19T02:05:41.111Z,81.56
2019-01-19T02:06:41.103Z,82.05
2019-01-19T02:07:41.091Z,81.87
2019-01-19T02:08:41.078Z,81.77
2019-01-19T02:09:41.070Z,81.73
2019-01-19T02:10:41.057Z,82.09
2019-01-19T02:11:41.051Z,82.29
2019-01-19T02:12:41.046Z,81.56
2019-01-19T02:13:41.024Z,81.95
2019-01-19T02:14:41.011Z,81.04
2019-01-19T02:15:41.009Z,81.67
2019-01-19T02:16:40.997Z,81.67
2019-01-19T02:17:40.984Z,81.77
2019-01-19T02:18:40.980Z,81.46
2019-01-19T02:19:40.963Z,82.09
2019-01-19T02:20:40.953Z,82.29
2019-01-19T02:21:40.942Z,82.19
2019-01-19T02:22:40.931Z,82.50
2019-01-19T02:23:40.918Z,82.23
2019-01-19T02:24:40.909Z,82.09
2019-01-19T02:25:40.894Z,82.12
2019-01-19T02:26:40.886Z,82.40
2019-01-19T02:27:40.879Z,82.54
2019-01-19T02:28:40.863Z,81.77
2019-01-19T02:29:40.855Z,81.98
2019-01-19T02:30:40.850Z,82.71
2019-01-19T02:31:40.831Z,82.86
2019-01-19T02:32:40.822Z,82.40
2019-01-19T02:33:40.816Z,82.12
2019-01-19T02:34:40.809Z,82.54
2019-01-19T02:35:48.148Z,82.50
2019-01-19T02:36:41.782Z,82.09
2019-01-19T02:37:40.771Z,81.87
2019-01-19T02:38:40.765Z,82.12
2019-01-19T02:39:40.752Z,82.50
2019-01-19T02:40:40.745Z,81.98
2019-01-19T02:41:40.739Z,81.87
2019-01-19T02:42:40.721Z,81.46
2019-01-19T02:43:40.708Z,81.15
2019-01-19T02:44:40.699Z,80.52
2019-01-19T02:45:40.691Z,80.16
2019-01-19T02:46:40.685Z,80.31
2019-01-19T02:47:40.671Z,80.16
2019-01-19T02:48:40.660Z,79.02
2019-01-19T02:49:40.645Z,79.02
2019-01-19T02:50:40.637Z,78.60
2019-01-19T02:51:40.629Z,79.02
2019-01-19T02:52:40.620Z,78.70
2019-01-19T02:53:40.612Z,79.12
2019-01-19T02:54:40.597Z,78.81
2019-01-19T02:55:40.589Z,79.36
2019-01-19T02:56:40.575Z,78.91
2019-01-19T02:57:40.563Z,78.91
2019-01-19T02:58:40.560Z,78.74
2019-01-19T02:59:40.541Z,79.36
2019-01-19T03:00:40.531Z,79.36
2019-01-19T03:01:40.523Z,80.62
2019-01-19T03:02:40.511Z,80.24
2019-01-19T03:03:40.501Z,80.24
2019-01-19T03:04:40.492Z,80.76
2019-01-19T03:05:40.479Z,80.87
2019-01-19T03:06:40.471Z,80.66
2019-01-19T03:07:40.456Z,80.97
2019-01-19T03:08:40.449Z,81.18
2019-01-19T03:09:40.441Z,81.18
2019-01-19T03:10:40.437Z,81.32
2019-01-19T03:11:40.416Z,81.43
2019-01-19T03:12:40.411Z,81.85
2019-01-19T03:13:40.396Z,82.62
2019-01-19T03:14:40.387Z,82.72
2019-01-19T03:15:40.375Z,82.62
2019-01-19T03:16:40.367Z,82.82
2019-01-19T03:17:40.355Z,82.97
2019-01-19T03:18:40.345Z,83.66
2019-01-19T03:19:40.339Z,83.25
2019-01-19T03:20:40.322Z,83.81
2019-01-19T03:21:40.315Z,83.39
2019-01-19T03:22:40.306Z,84.08
2019-01-19T03:23:40.290Z,84.54
2019-01-19T03:24:40.276Z,84.22
2019-01-19T03:25:40.270Z,84.12
2019-01-19T03:26:40.257Z,84.22
2019-01-19T03:27:40.253Z,84.33
2019-01-19T03:28:40.239Z,84.54
2019-01-19T03:29:40.233Z,84.22
2019-01-19T03:30:40.222Z,84.54
2019-01-19T03:31:40.218Z,84.33
2019-01-19T03:32:40.197Z,84.44
2019-01-19T03:33:40.187Z,84.47
2019-01-19T03:34:40.169Z,84.83
2019-01-19T03:35:40.166Z,85.52
2019-01-19T03:36:40.157Z,85.31
2019-01-19T03:37:40.145Z,85.66
2019-01-19T03:38:40.134Z,85.77
2019-01-19T03:39:40.126Z,86.08
2019-01-19T03:40:40.111Z,87.13
2019-01-19T03:41:40.105Z,86.92
2019-01-19T03:42:40.091Z,86.96
2019-01-19T03:43:40.084Z,86.96
2019-01-19T03:44:40.070Z,87.07
2019-01-19T03:45:40.060Z,86.96
2019-01-19T03:46:40.049Z,87.11
2019-01-19T03:47:40.042Z,86.79
2019-01-19T03:48:40.034Z,87.67
2019-01-19T03:49:40.018Z,88.47
2019-01-19T03:50:40.008Z,88.51
2019-01-19T03:51:40.000Z,88.72
2019-01-19T03:52:39.988Z,88.72
2019-01-19T03:53:39.982Z,89.35
2019-01-19T03:54:39.960Z,89.50
2019-01-19T03:55:39.958Z,89.81
2019-01-19T03:56:39.950Z,89.81
2019-01-19T03:57:39.937Z,90.44
2019-01-19T03:58:39.925Z,91.07
2019-01-19T03:59:39.914Z,91.64
2019-01-19T04:00:39.904Z,91.71
2019-01-19T04:01:39.895Z,91.81
2019-01-19T04:02:39.884Z,91.81
2019-01-19T04:03:39.875Z,92.06
2019-01-19T04:04:39.935Z,91.91
2019-01-19T04:05:39.849Z,91.81
2019-01-19T04:06:39.840Z,91.11
2019-01-19T04:07:39.834Z,91.43
2019-01-19T04:08:39.819Z,92.38
2019-01-19T04:09:39.808Z,91.85
2019-01-19T04:10:39.798Z,92.06
2019-01-19T04:11:39.782Z,91.96
2019-01-19T04:12:39.776Z,92.16
2019-01-19T04:13:39.768Z,92.16
2019-01-19T04:14:39.757Z,92.16
2019-01-19T04:15:39.744Z,92.38
2019-01-19T04:16:39.735Z,92.27
2019-01-19T04:17:39.724Z,92.21
2019-01-19T04:18:39.719Z,92.16
2019-01-19T04:19:39.705Z,92.58
2019-01-19T04:20:39.695Z,92.16
2019-01-19T04:21:39.682Z,92.27
2019-01-19T04:22:39.672Z,92.69
2019-01-19T04:23:39.661Z,92.23
2019-01-19T04:24:39.653Z,92.23
2019-01-19T04:25:39.646Z,91.91
2019-01-19T04:26:39.634Z,91.91
2019-01-19T04:27:39.616Z,91.81
2019-01-19T04:28:39.610Z,92.40
2019-01-19T04:29:39.598Z,91.87
2019-01-19T04:30:39.588Z,92.08
2019-01-19T04:31:39.579Z,91.97
2019-01-19T04:32:39.569Z,91.87
2019-01-19T04:33:39.558Z,92.04
2019-01-19T04:34:39.547Z,91.14
2019-01-19T04:35:39.533Z,91.41
2019-01-19T04:36:39.525Z,91.62
2019-01-19T04:37:39.516Z,90.89
2019-01-19T04:38:39.505Z,91.30
2019-01-19T04:39:39.495Z,91.30
2019-01-19T04:40:39.487Z,91.52
2019-01-19T04:41:39.477Z,90.84
2019-01-19T04:42:39.465Z,90.32
2019-01-19T04:43:39.455Z,90.17
2019-01-19T04:44:39.449Z,90.11
2019-01-19T04:45:39.431Z,89.12
2019-01-19T04:46:39.418Z,89.48
2019-01-19T04:47:39.410Z,89.75
2019-01-19T04:48:39.396Z,89.75
2019-01-19T04:49:39.388Z,89.34
2019-01-19T04:50:39.409Z,89.34
2019-01-19T04:51:39.370Z,88.98
2019-01-19T04:52:39.360Z,88.87
2019-01-19T04:53:39.349Z,88.67
2019-01-19T04:54:39.338Z,88.77
2019-01-19T04:55:39.328Z,87.47
2019-01-19T04:56:39.317Z,87.68
2019-01-19T04:57:39.305Z,87.68
2019-01-19T04:58:39.292Z,87.26
2019-01-19T04:59:39.291Z,87.26
2019-01-19T05:00:39.271Z,87.68
2019-01-19T05:01:39.260Z,87.58
2019-01-19T05:02:39.251Z,87.68
2019-01-19T05:03:39.245Z,87.68
2019-01-19T05:04:39.236Z,88.21
2019-01-19T05:05:39.224Z,88.21
2019-01-19T05:06:39.213Z,87.83
2019-01-19T05:07:39.204Z,88.14
2019-01-19T05:08:39.192Z,87.62
2019-01-19T05:09:39.183Z,88.71
2019-01-19T05:10:39.173Z,88.46
2019-01-19T05:11:39.163Z,88.92
2019-01-19T05:12:39.149Z,88.81
2019-01-19T05:13:39.141Z,88.81
2019-01-19T05:14:39.130Z,88.92
2019-01-19T05:15:39.122Z,89.12
2019-01-19T05:16:39.109Z,88.92
2019-01-19T05:17:39.109Z,89.23
2019-01-19T05:18:39.083Z,89.06
2019-01-19T05:19:39.075Z,89.48
2019-01-19T05:20:39.061Z,89.69
2019-01-19T05:21:39.056Z,90.22
2019-01-19T05:22:39.043Z,90.00
2019-01-19T05:23:39.032Z,90.89
2019-01-19T05:24:39.029Z,91.41
2019-01-19T05:25:39.017Z,91.41
2019-01-19T05:26:39.003Z,90.78
2019-01-19T05:27:38.994Z,90.72
2019-01-19T05:28:38.988Z,91.14
2019-01-19T05:29:38.991Z,92.19
2019-01-19T05:30:38.965Z,91.97
2019-01-19T05:31:38.953Z,92.19
2019-01-19T05:32:38.938Z,92.12
2019-01-19T05:33:38.929Z,91.91
2019-01-19T05:34:38.917Z,92.02
2019-01-19T05:35:38.908Z,92.12
2019-01-19T05:36:38.898Z,92.23
2019-01-19T05:37:38.885Z,92.96
2019-01-19T05:38:38.883Z,92.27
2019-01-19T05:39:38.864Z,92.42
2019-01-19T05:40:38.857Z,92.69
2019-01-19T05:41:38.845Z,92.69
2019-01-19T05:42:38.836Z,92.84
2019-01-19T05:43:38.826Z,92.73
2019-01-19T05:44:38.813Z,93.79
2019-01-19T05:45:38.805Z,93.37
2019-01-19T05:46:38.796Z,93.83
2019-01-19T05:47:38.782Z,93.83
2019-01-19T05:48:38.776Z,94.88
2019-01-19T05:49:38.770Z,94.67
2019-01-19T05:50:38.751Z,94.67
2019-01-19T05:51:38.744Z,94.46
2019-01-19T05:52:38.728Z,94.50
2019-01-19T05:53:38.719Z,95.87
2019-01-19T05:54:38.710Z,96.61
2019-01-19T05:55:38.698Z,97.03
2019-01-19T05:56:38.699Z,96.92
2019-01-19T05:57:38.683Z,97.03
2019-01-19T05:58:38.674Z,97.13
2019-01-19T05:59:38.660Z,96.81
2019-01-19T06:00:38.650Z,96.81
2019-01-19T06:01:38.636Z,96.92
2019-01-19T06:02:38.624Z,97.55
2019-01-19T06:03:38.614Z,97.60
2019-01-19T06:04:38.608Z,97.17
2019-01-19T06:05:38.606Z,97.28
2019-01-19T06:06:46.342Z,97.49
2019-01-19T06:07:39.571Z,97.60
2019-01-19T06:08:38.562Z,97.13
2019-01-19T06:09:38.552Z,96.97
2019-01-19T06:10:38.546Z,97.17
2019-01-19T06:11:38.536Z,97.28
2019-01-19T06:12:38.525Z,97.28
2019-01-19T06:13:38.510Z,97.49
2019-01-19T06:14:38.499Z,97.07
2019-01-19T06:15:38.490Z,97.11
2019-01-19T06:16:38.480Z,97.28
2019-01-19T06:17:38.470Z,97.85
2019-01-19T06:18:38.459Z,98.13
2019-01-19T06:19:38.450Z,98.44
2019-01-19T06:20:38.436Z,98.13
2019-01-19T06:21:38.426Z,98.55
2019-01-19T06:22:38.419Z,97.91
2019-01-19T06:23:38.406Z,98.13
2019-01-19T06:24:38.399Z,98.75
2019-01-19T06:25:38.387Z,98.23
2019-01-19T06:26:38.373Z,98.55
2019-01-19T06:27:38.367Z,98.02
2019-01-19T06:28:38.352Z,98.33
2019-01-19T06:29:38.344Z,98.65
2019-01-19T06:30:38.334Z,98.71
2019-01-19T06:31:38.370Z,98.44
2019-01-19T06:32:38.314Z,98.50
2019-01-19T06:33:38.302Z,98.60
2019-01-19T06:34:38.289Z,98.82
2019-01-19T06:35:38.280Z,98.92
2019-01-19T06:36:38.271Z,98.50
2019-01-19T06:37:38.258Z,98.56
2019-01-19T06:38:38.248Z,98.35
2019-01-19T06:39:38.234Z,98.46
2019-01-19T06:40:38.234Z,98.88
2019-01-19T06:41:38.225Z,98.24
2019-01-19T06:42:38.210Z,98.24
2019-01-19T06:43:38.196Z,98.83
2019-01-19T06:44:38.184Z,98.72
2019-01-19T06:45:38.177Z,98.62
2019-01-19T06:46:38.164Z,98.62
2019-01-19T06:47:38.156Z,98.20
2019-01-19T06:48:38.144Z,98.20
2019-01-19T06:49:38.135Z,98.41
2019-01-19T06:50:38.121Z,97.47
2019-01-19T06:51:38.114Z,97.67
2019-01-19T06:52:38.099Z,97.47
2019-01-19T06:53:38.097Z,97.47
2019-01-19T06:54:38.078Z,96.73
2019-01-19T06:55:38.073Z,97.15
2019-01-19T06:56:38.060Z,97.15
2019-01-19T06:57:38.049Z,96.83
2019-01-19T06:58:38.040Z,97.05
2019-01-19T06:59:38.029Z,97.05
2019-01-19T07:00:38.019Z,96.73
2019-01-19T07:01:38.007Z,96.62
2019-01-19T07:02:37.996Z,96.62
2019-01-19T07:03:37.998Z,96.89
2019-01-19T07:04:37.978Z,96.83
2019-01-19T07:05:37.966Z,97.00
2019-01-19T07:06:37.954Z,97.11
2019-01-19T07:07:37.945Z,97.42
2019-01-19T07:08:37.932Z,97.42
2019-01-19T07:09:37.922Z,97.42
2019-01-19T07:10:37.914Z,98.22
2019-01-19T07:11:37.903Z,97.96
2019-01-19T07:12:37.893Z,97.86
2019-01-19T07:13:37.880Z,98.07
2019-01-19T07:14:37.871Z,97.86
2019-01-19T07:15:37.860Z,98.49
2019-01-19T07:16:37.849Z,97.33
2019-01-19T07:17:37.841Z,97.39
2019-01-19T07:18:37.826Z,96.87
2019-01-19T07:19:37.814Z,96.93
2019-01-19T07:20:37.809Z,96.45
2019-01-19T07:21:37.797Z,96.61
2019-01-19T07:22:37.791Z,96.51
2019-01-19T07:23:37.775Z,96.61
2019-01-19T07:24:37.766Z,96.51
2019-01-19T07:25:37.759Z,96.72
2019-01-19T07:26:37.745Z,95.88
2019-01-19T07:27:37.736Z,95.42
2019-01-19T07:28:37.721Z,95.84
2019-01-19T07:29:37.717Z,95.52
2019-01-19T07:30:37.704Z,95.52
2019-01-19T07:31:37.693Z,95.10
2019-01-19T07:32:37.682Z,94.58
2019-01-19T07:33:37.671Z,94.79
2019-01-19T07:34:37.668Z,94.47
2019-01-19T07:35:37.652Z,94.26
2019-01-19T07:36:37.642Z,94.47
2019-01-19T07:37:37.630Z,94.37
2019-01-19T07:38:37.619Z,94.26
2019-01-19T07:39:37.612Z,94.16
2019-01-19T07:40:37.598Z,94.16
2019-01-19T07:41:37.583Z,94.37
2019-01-19T07:42:37.573Z,94.26
2019-01-19T07:43:37.565Z,93.63
2019-01-19T07:44:37.553Z,93.80
2019-01-19T07:45:37.543Z,93.43
2019-01-19T07:46:37.529Z,92.96
2019-01-19T07:47:37.522Z,93.27
2019-01-19T07:48:37.508Z,93.17
2019-01-19T07:49:37.499Z,92.96
2019-01-19T07:50:37.488Z,93.01
2019-01-19T07:51:37.478Z,93.21
2019-01-19T07:52:37.467Z,92.80
2019-01-19T07:53:37.456Z,93.21
2019-01-19T07:54:37.446Z,93.07
2019-01-19T07:55:37.437Z,93.27
2019-01-19T07:56:37.425Z,93.53
2019-01-19T07:57:37.418Z,93.11
2019-01-19T07:58:37.405Z,93.27
2019-01-19T07:59:37.393Z,93.11
2019-01-19T08:00:37.383Z,92.80
2019-01-19T08:01:37.372Z,93.21
2019-01-19T08:02:37.362Z,92.90
2019-01-19T08:03:37.351Z,92.90
2019-01-19T08:04:37.341Z,93.07
2019-01-19T08:05:37.330Z,92.16
2019-01-19T08:06:37.320Z,92.86
2019-01-19T08:07:37.315Z,92.69
2019-01-19T08:08:37.298Z,92.54
2019-01-19T08:09:37.288Z,92.23
2019-01-19T08:10:37.277Z,92.65
2019-01-19T08:11:37.267Z,92.69
2019-01-19T08:12:37.258Z,92.44
2019-01-19T08:13:37.301Z,92.44
2019-01-19T08:14:37.238Z,91.60
2019-01-19T08:15:37.227Z,91.91
2019-01-19T08:16:37.221Z,91.75
2019-01-19T08:17:37.215Z,92.02
2019-01-19T08:18:37.200Z,91.71
2019-01-19T08:19:37.192Z,92.19
2019-01-19T08:20:37.183Z,91.77
2019-01-19T08:21:37.175Z,91.66
2019-01-19T08:22:37.162Z,90.93
2019-01-19T08:23:37.148Z,91.03
2019-01-19T08:24:37.141Z,91.14
2019-01-19T08:25:37.133Z,91.09
2019-01-19T08:26:37.123Z,90.41
2019-01-19T08:27:37.108Z,90.99
2019-01-19T08:28:37.105Z,90.47
2019-01-19T08:29:37.088Z,90.51
2019-01-19T08:30:37.077Z,90.99
2019-01-19T08:31:37.064Z,90.83
2019-01-19T08:32:37.056Z,90.47
2019-01-19T08:33:37.045Z,90.78
2019-01-19T08:34:37.033Z,90.58
2019-01-19T08:35:37.025Z,90.36
2019-01-19T08:36:37.013Z,90.36
2019-01-19T08:37:37.015Z,90.05
2019-01-19T08:38:36.997Z,89.90
2019-01-19T08:39:36.980Z,89.65
2019-01-19T08:40:36.970Z,88.78
2019-01-19T08:41:36.967Z,88.67
2019-01-19T08:42:36.956Z,86.96
2019-01-19T08:43:36.940Z,86.82
2019-01-19T08:44:36.929Z,85.42
2019-01-19T08:45:36.915Z,84.75
2019-01-19T08:46:36.946Z,83.22
2019-01-19T08:47:36.898Z,82.24
2019-01-19T08:48:36.883Z,80.85
2019-01-19T08:49:36.877Z,79.46
2019-01-19T08:50:36.864Z,78.83
2019-01-19T08:51:36.856Z,78.10
2019-01-19T08:52:36.847Z,78.73
2019-01-19T08:53:36.844Z,78.20
2019-01-19T08:54:36.839Z,78.07
2019-01-19T08:55:36.976Z,76.61
2019-01-19T08:56:38.144Z,76.82
2019-01-19T08:57:36.830Z,75.64
2019-01-19T08:58:36.823Z,74.77
2019-01-19T08:59:36.781Z,74.49
2019-01-19T09:00:36.765Z,73.80
2019-01-19T09:01:36.797Z,74.32
2019-01-19T09:02:36.794Z,73.56
2019-01-19T09:03:36.728Z,73.04
2019-01-19T09:04:36.718Z,72.52
2019-01-19T09:05:36.713Z,72.31
2019-01-19T09:06:36.730Z,72.17
2019-01-19T09:07:36.710Z,72.28
2019-01-19T09:08:36.699Z,71.97
2019-01-19T09:09:36.672Z,71.97
2019-01-19T09:10:36.661Z,72.21
2019-01-19T09:11:36.640Z,72.63
2019-01-19T09:12:36.630Z,72.38
2019-01-19T09:13:36.627Z,71.55
2019-01-19T09:14:36.607Z,71.31
2019-01-19T09:15:36.597Z,71.00
2019-01-19T09:16:40.543Z,69.42
2019-01-19T09:17:37.576Z,68.13
2019-01-19T09:18:36.583Z,68.62
2019-01-19T09:19:36.562Z,67.93
2019-01-19T09:20:36.544Z,68.72
2019-01-19T09:21:36.535Z,70.17
2019-01-19T09:22:36.527Z,69.38
2019-01-19T09:23:36.513Z,68.03
2019-01-19T09:24:36.502Z,67.82
2019-01-19T09:25:36.492Z,68.07
2019-01-19T09:26:36.544Z,68.90
2019-01-19T09:27:36.471Z,69.73
2019-01-19T09:28:36.464Z,69.34
2019-01-19T09:29:36.452Z,71.07
2019-01-19T09:30:36.441Z,72.90
2019-01-19T09:31:36.436Z,73.49
2019-01-19T09:32:36.417Z,73.04
2019-01-19T09:33:36.404Z,72.03
2019-01-19T09:34:36.402Z,73.00
2019-01-19T09:35:36.382Z,74.91
2019-01-19T09:36:36.431Z,75.26
2019-01-19T09:37:40.788Z,76.43
2019-01-19T09:38:36.353Z,77.37
2019-01-19T09:39:36.347Z,77.83
2019-01-19T09:40:36.331Z,77.66
2019-01-19T09:41:36.319Z,77.97
2019-01-19T09:42:36.308Z,77.83
2019-01-19T09:43:36.298Z,78.14
2019-01-19T09:44:36.287Z,78.24
2019-01-19T09:45:36.304Z,77.93
2019-01-19T09:46:36.267Z,77.93
2019-01-19T09:47:36.258Z,77.72
2019-01-19T09:48:36.249Z,77.62
2019-01-19T09:49:36.235Z,77.41
2019-01-19T09:50:36.233Z,78.07
2019-01-19T09:51:36.211Z,78.28
2019-01-19T09:52:36.201Z,78.28
2019-01-19T09:53:36.189Z,79.05
2019-01-19T09:54:36.186Z,79.98
2019-01-19T09:55:36.172Z,80.19
2019-01-19T09:56:36.179Z,80.44
2019-01-19T09:57:37.117Z,80.44
2019-01-19T09:58:36.145Z,80.75
2019-01-19T09:59:36.128Z,80.33
2019-01-19T10:00:37.831Z,80.61
2019-01-19T10:01:36.108Z,80.19
2019-01-19T10:02:36.095Z,80.51
2019-01-19T10:03:36.085Z,80.61
2019-01-19T10:04:36.073Z,79.94
2019-01-19T10:05:36.071Z,79.08
2019-01-19T10:06:36.055Z,78.91
2019-01-19T10:07:36.044Z,78.56
2019-01-19T10:08:36.036Z,78.24
2019-01-19T10:09:36.025Z,78.56
2019-01-19T10:10:36.010Z,78.45
2019-01-19T10:11:36.000Z,78.45
2019-01-19T10:12:35.987Z,77.48
2019-01-19T10:13:35.977Z,77.75
2019-01-19T10:14:35.969Z,75.60
2019-01-19T10:15:35.969Z,73.77
2019-01-19T10:16:35.946Z,71.66
2019-01-19T10:17:35.935Z,71.31
2019-01-19T10:18:35.927Z,69.27
2019-01-19T10:19:35.917Z,68.93
2019-01-19T10:20:35.905Z,67.52
2019-01-19T10:21:35.906Z,65.45
2019-01-19T10:22:35.882Z,65.42
2019-01-19T10:23:35.877Z,64.46
2019-01-19T10:24:35.862Z,65.32
2019-01-19T10:25:35.855Z,65.28
2019-01-19T10:26:35.843Z,66.55
2019-01-19T10:27:37.533Z,66.52
2019-01-19T10:28:35.816Z,65.32
2019-01-19T10:29:35.803Z,63.53
2019-01-19T10:30:35.798Z,62.95
2019-01-19T10:31:35.785Z,61.99
2019-01-19T10:32:35.777Z,61.35
2019-01-19T10:33:35.768Z,60.63
2019-01-19T10:34:35.758Z,60.73
2019-01-19T10:35:35.742Z,60.68
2019-01-19T10:36:35.737Z,61.82
2019-01-19T10:37:35.725Z,62.34
2019-01-19T10:38:35.717Z,61.14
2019-01-19T10:39:35.702Z,60.75
2019-01-19T10:40:35.695Z,61.17
2019-01-19T10:41:40.839Z,61.14
2019-01-19T10:42:36.671Z,59.69
2019-01-19T10:43:35.656Z,59.64
2019-01-19T10:44:35.650Z,57.93
2019-01-19T10:45:35.641Z,57.88
2019-01-19T10:46:35.628Z,56.80
2019-01-19T10:47:35.613Z,54.15
2019-01-19T10:48:35.612Z,54.90
2019-01-19T10:49:35.596Z,57.21
2019-01-19T10:50:35.583Z,56.59
2019-01-19T10:51:35.570Z,57.24
2019-01-19T10:52:35.559Z,56.90
2019-01-19T10:53:35.550Z,58.04
2019-01-19T10:54:35.541Z,56.80
2019-01-19T10:55:35.528Z,57.03
2019-01-19T10:56:35.520Z,57.68
2019-01-19T10:57:35.506Z,58.22
2019-01-19T10:58:35.499Z,55.90
2019-01-19T10:59:35.489Z,56.13
2019-01-19T11:00:35.480Z,56.39
2019-01-19T11:01:35.467Z,57.86
2019-01-19T11:02:35.462Z,58.48
2019-01-19T11:03:35.445Z,58.30
2019-01-19T11:04:35.438Z,58.87
2019-01-19T11:05:35.462Z,58.37
2019-01-19T11:06:35.410Z,57.01
2019-01-19T11:07:35.445Z,56.70
2019-01-19T11:08:35.392Z,56.03
2019-01-19T11:09:35.381Z,55.95
2019-01-19T11:10:35.372Z,57.11
2019-01-19T11:11:35.358Z,58.97
2019-01-19T11:12:35.352Z,59.59
2019-01-19T11:13:35.337Z,58.61
2019-01-19T11:14:35.328Z,58.40
2019-01-19T11:15:35.322Z,58.48
2019-01-19T11:16:35.314Z,58.79
2019-01-19T11:17:35.298Z,57.93
2019-01-19T11:18:35.284Z,57.83
2019-01-19T11:19:35.271Z,58.12
2019-01-19T11:20:35.268Z,60.14
2019-01-19T11:21:35.251Z,59.36
2019-01-19T11:22:35.242Z,58.79
2019-01-19T11:23:39.731Z,58.37
2019-01-19T11:24:35.224Z,58.17
2019-01-19T11:25:35.207Z,58.94
2019-01-19T11:26:35.201Z,58.33
2019-01-19T11:27:35.190Z,60.18
2019-01-19T11:28:35.173Z,58.37
2019-01-19T11:29:35.179Z,56.29
2019-01-19T11:30:35.159Z,56.62
2019-01-19T11:31:35.141Z,57.86
2019-01-19T11:32:35.136Z,57.14
2019-01-19T11:33:35.138Z,58.37
2019-01-19T11:34:35.118Z,58.30
2019-01-19T11:35:35.105Z,57.96
2019-01-19T11:36:35.090Z,57.14
2019-01-19T11:37:35.083Z,58.27
2019-01-19T11:38:35.075Z,57.24
2019-01-19T11:39:35.062Z,57.52
2019-01-19T11:40:35.047Z,56.08
2019-01-19T11:41:35.036Z,56.83
2019-01-19T11:42:35.035Z,57.78
2019-01-19T11:43:35.058Z,58.15
2019-01-19T11:44:35.015Z,60.89
2019-01-19T11:45:34.994Z,61.54
2019-01-19T11:46:34.981Z,60.75
2019-01-19T11:47:34.973Z,60.31
2019-01-19T11:48:34.969Z,60.11
2019-01-19T11:49:34.949Z,60.03
2019-01-19T11:50:34.943Z,59.93
2019-01-19T11:51:34.927Z,59.88
2019-01-19T11:52:34.966Z,58.12
2019-01-19T11:53:34.912Z,58.94
2019-01-19T11:54:34.901Z,58.35
2019-01-19T11:55:34.886Z,60.11
2019-01-19T11:56:34.979Z,58.12
2019-01-19T11:57:34.864Z,59.05
2019-01-19T11:58:34.856Z,58.06
2019-01-19T11:59:34.848Z,58.43
2019-01-19T12:00:34.832Z,60.24
2019-01-19T12:01:34.823Z,59.93
2019-01-19T12:02:37.147Z,59.80
2019-01-19T12:03:34.804Z,59.93
2019-01-19T12:04:34.792Z,60.34
2019-01-19T12:05:34.782Z,60.75
2019-01-19T12:06:34.774Z,60.11
2019-01-19T12:07:43.436Z,59.56
2019-01-19T12:09:16.866Z,59.88
2019-01-19T12:10:16.776Z,60.00
2019-01-19T12:11:16.773Z,60.00
2019-01-19T12:12:16.787Z,59.90
2019-01-19T12:13:16.754Z,59.80
2019-01-19T12:14:16.735Z,59.88
2019-01-19T12:15:16.719Z,58.09
2019-01-19T12:16:16.706Z,57.76
2019-01-19T12:17:16.697Z,56.93
2019-01-19T12:18:16.686Z,56.70
2019-01-19T12:19:16.674Z,56.85
2019-01-19T12:20:16.661Z,54.87
2019-01-19T12:21:16.654Z,54.77
2019-01-19T12:22:16.640Z,54.56
2019-01-19T12:23:16.629Z,55.62
2019-01-19T12:24:16.618Z,54.77
2019-01-19T12:25:16.607Z,55.33
2019-01-19T12:26:16.601Z,56.18
2019-01-19T12:27:16.585Z,56.00
2019-01-19T12:28:16.574Z,54.43
2019-01-19T12:29:16.565Z,54.28
2019-01-19T12:30:16.552Z,54.20
2019-01-19T12:31:16.542Z,54.02
2019-01-19T12:32:16.532Z,55.07
2019-01-19T12:33:16.521Z,55.26
2019-01-19T12:34:16.509Z,54.82
2019-01-19T12:35:16.500Z,53.79
2019-01-19T12:36:16.490Z,53.05
2019-01-19T12:37:16.478Z,53.58
2019-01-19T12:38:16.473Z,52.73
2019-01-19T12:39:16.457Z,52.33
2019-01-19T12:40:16.450Z,53.05
2019-01-19T12:41:16.438Z,53.48
2019-01-19T12:42:16.427Z,53.25
2019-01-19T12:43:16.413Z,52.64
2019-01-19T12:44:16.403Z,53.48
2019-01-19T12:45:16.399Z,53.66
2019-01-19T12:46:16.382Z,51.50
2019-01-19T12:47:16.374Z,53.63
2019-01-19T12:48:16.361Z,55.85
2019-01-19T12:49:16.349Z,56.16
2019-01-19T12:50:16.339Z,56.83
2019-01-19T12:51:16.327Z,56.80
2019-01-19T12:52:16.314Z,56.26
2019-01-19T12:53:16.305Z,55.10